CheckWX is a tool to help pilots better visualize weather data.  It is not intended as a substitute for an official pre-flight weather briefing.

19:14:24 UTC

KEUL METAR
Caldwell Industrial Airport
Caldwell, Idaho, USA
Current

18 mins ago

KEUL 201856Z AUTO 28012KT 10SM CLR 11/00 A2983 RMK AO2 SLP104 T01110000
Observed
Nov-20 @ 18:56 UTC
Wind
  • 280° at 12 KTS
Visibility
10 SM
Flight Rules
VFR
Cloud Levels
  • Clear skies
Temperature
11°C / 52°F
Dewpoint
C / 32°F
Humidity
47%
Altimeter
29.83" Hg
Pressure
1010.12 hPa
Previous

1 hour ago

KEUL 201756Z AUTO 27011KT 10SM CLR 09/01 A2984 RMK AO2 SLP111 T00890006 10089 20017 50004
Observed
Nov-20 @ 17:56 UTC
Wind
  • 270° at 11 KTS
Visibility
10 SM
Flight Rules
VFR
Cloud Levels
  • Clear skies
Temperature
C / 48°F
Dewpoint
C / 34°F
Humidity
58%
Altimeter
29.84" Hg
Pressure
1010.52 hPa
Previous

2 hours ago

KEUL 201656Z AUTO 27010KT 10SM FEW080 06/00 A2984 RMK AO2 SLP116 T00560000
Observed
Nov-20 @ 16:56 UTC
Wind
  • 270° at 10 KTS
Visibility
10 SM
Flight Rules
VFR
Cloud Levels
  • Few at 8,000' AGL
Temperature
C / 43°F
Dewpoint
C / 32°F
Humidity
66%
Altimeter
29.84" Hg
Pressure
1010.52 hPa